Time;durP1;ratioP1;P1;durP2;ratioP2;P2;SDS_P1;SDS_P2;PMS_P1;PMS_P2;Temp;Humidity;BMP_temperature;BMP_pressure;BME280_temperature;BME280_humidity;BME280_pressure;Samples;Min_cycle;Max_cycle;Signal;HPM_P1;HPM_P2
2022/09/05 00:00:07;;;;;;;2.72;1.13;;;17.30;61.10;;;;;;5079413;28;20062;-63
2022/09/05 00:03:01;;;;;;;2.47;1.13;;;17.30;62.30;;;;;;5081305;28;20020;-62
2022/09/05 00:05:39;;;;;;;1.90;1.35;;;17.30;62.30;;;;;;5076498;28;20025;-63
2022/09/05 00:08:22;;;;;;;3.60;0.90;;;17.20;61.00;;;;;;5069880;28;20093;-64
2022/09/05 00:11:07;;;;;;;1.63;1.10;;;17.20;61.90;;;;;;5082517;28;20031;-62
2022/09/05 00:13:50;;;;;;;;;;;17.20;61.20;;;;;;5083284;28;20048;-64
2022/09/05 00:16:19;;;;;;;1.88;1.10;;;17.20;61.30;;;;;;5079021;28;19912;-63
2022/09/05 00:19:06;;;;;;;7.05;1.20;;;17.20;61.20;;;;;;5102249;28;20028;-63
2022/09/05 00:21:54;;;;;;;1.30;1.10;;;17.10;62.60;;;;;;5091752;28;20028;-63
2022/09/05 00:24:25;;;;;;;1.55;1.20;;;17.10;62.50;;;;;;5084267;28;20036;-61
2022/09/05 00:27:03;;;;;;;2.85;1.20;;;17.10;62.30;;;;;;5071180;28;20031;-63
2022/09/05 00:29:58;;;;;;;1.55;1.00;;;17.00;62.50;;;;;;5067570;28;20029;-63
2022/09/05 00:32:51;;;;;;;1.63;1.10;;;17.00;63.20;;;;;;5069659;28;20079;-63
2022/09/05 00:35:46;;;;;;;4.05;1.40;;;17.00;63.20;;;;;;5075619;28;20025;-64
2022/09/05 00:38:18;;;;;;;1.20;1.10;;;17.00;63.80;;;;;;5084541;28;20052;-63
2022/09/05 00:41:01;;;;;;;1.63;1.20;;;17.00;62.50;;;;;;5077325;28;20112;-64
2022/09/05 00:43:47;;;;;;;1.20;1.10;;;16.90;63.50;;;;;;5068963;28;20063;-63
2022/09/05 00:46:15;;;;;;;2.00;1.10;;;16.90;64.00;;;;;;5080281;28;20039;-64
2022/09/05 00:49:15;;;;;;;1.73;1.00;;;16.90;63.10;;;;;;5078345;28;20040;-63
2022/09/05 00:52:04;;;;;;;1.35;1.20;;;16.80;64.20;;;;;;5075755;28;20033;-63
2022/09/05 00:54:39;;;;;;;1.30;1.00;;;16.80;62.90;;;;;;5070960;28;20724;-63
2022/09/05 00:57:34;;;;;;;1.30;1.08;;;16.80;63.00;;;;;;5086905;28;20036;-64
2022/09/05 01:00:12;;;;;;;2.33;1.30;;;16.80;64.50;;;;;;5084702;28;20032;-62
2022/09/05 01:02:46;;;;;;;2.72;1.00;;;16.80;64.30;;;;;;5083952;28;20541;-64
2022/09/05 01:05:37;;;;;;;;;;;16.80;63.90;;;;;;5100400;28;20051;-63
2022/09/05 01:08:27;;;;;;;1.08;1.00;;;16.80;63.40;;;;;;5066464;28;19908;-62
2022/09/05 01:11:24;;;;;;;3.22;1.23;;;16.70;64.00;;;;;;5083156;28;20092;-63
2022/09/05 01:14:06;;;;;;;2.78;1.10;;;16.70;64.10;;;;;;5068596;28;20045;-63
2022/09/05 01:16:45;;;;;;;1.27;1.17;;;16.70;64.50;;;;;;5076752;28;20024;-63
2022/09/05 01:19:39;;;;;;;2.80;1.45;;;16.60;63.70;;;;;;5074891;28;20025;-62
2022/09/05 01:22:36;;;;;;;1.63;1.15;;;16.60;63.90;;;;;;5066590;28;20040;-63
2022/09/05 01:25:02;;;;;;;1.42;1.20;;;16.50;65.00;;;;;;5080228;28;20033;-62
2022/09/05 01:27:48;;;;;;;4.65;1.65;;;16.50;63.80;;;;;;5085630;28;20024;-63
2022/09/05 01:30:21;;;;;;;4.03;1.40;;;16.50;64.30;;;;;;5096755;28;20039;-64
2022/09/05 01:33:09;;;;;;;2.60;1.38;;;16.50;64.50;;;;;;5080798;28;20111;-63
2022/09/05 01:35:52;;;;;;;2.08;1.20;;;16.50;65.60;;;;;;5079424;28;20024;-62
2022/09/05 01:38:40;;;;;;;1.83;1.08;;;16.50;65.40;;;;;;5065514;28;20052;-64
2022/09/05 01:41:11;;;;;;;1.70;1.40;;;16.50;65.40;;;;;;5073095;28;20115;-63
2022/09/05 01:44:02;;;;;;;2.63;1.33;;;16.50;64.90;;;;;;5090115;28;20035;-63
2022/09/05 01:47:04;;;;;;;1.77;1.10;;;16.40;65.60;;;;;;5083714;28;20033;-63
2022/09/05 01:49:55;;;;;;;2.00;1.20;;;16.40;65.70;;;;;;5076185;28;20032;-63
2022/09/05 01:52:32;;;;;;;1.40;1.30;;;16.40;64.90;;;;;;5077691;28;20044;-63
2022/09/05 01:55:35;;;;;;;1.75;1.20;;;16.40;64.40;;;;;;5071166;28;20016;-62
2022/09/05 01:58:12;;;;;;;2.05;1.08;;;16.40;65.50;;;;;;5076714;28;20463;-63
2022/09/05 02:00:43;;;;;;;3.15;1.38;;;16.40;65.20;;;;;;5092256;28;20487;-63
2022/09/05 02:03:48;;;;;;;1.77;1.40;;;16.30;64.80;;;;;;5086307;28;20029;-63
2022/09/05 02:07:01;;;;;;;1.35;1.10;;;16.30;65.80;;;;;;5044241;28;20587;-61
2022/09/05 02:09:48;;;;;;;2.42;1.00;;;16.30;65.80;;;;;;4986319;28;20102;-63
2022/09/05 02:12:14;;;;;;;3.22;1.40;;;16.30;65.60;;;;;;4969043;28;20050;-62
2022/09/05 02:15:07;;;;;;;1.45;1.10;;;16.30;64.60;;;;;;4986011;28;20035;-64
2022/09/05 02:17:49;;;;;;;1.42;1.00;;;16.30;65.90;;;;;;4982150;28;20035;-63
2022/09/05 02:20:19;;;;;;;2.78;1.00;;;16.20;65.40;;;;;;4985688;28;20160;-63
2022/09/05 02:23:13;;;;;;;2.90;1.38;;;16.20;64.50;;;;;;4970830;28;20043;-62
2022/09/05 02:25:48;;;;;;;2.10;1.10;;;16.20;65.90;;;;;;4966062;28;20034;-63
2022/09/05 02:28:30;;;;;;;1.85;1.30;;;16.20;65.30;;;;;;4952694;28;20050;-63
2022/09/05 02:31:06;;;;;;;2.53;1.23;;;16.20;64.90;;;;;;4972850;28;20047;-63
2022/09/05 02:33:46;;;;;;;3.22;1.40;;;16.20;65.30;;;;;;4967957;28;20055;-63
2022/09/05 02:36:27;;;;;;;2.08;1.20;;;16.20;65.70;;;;;;4963450;28;20036;-63
2022/09/05 02:39:31;;;;;;;1.40;1.30;;;16.10;65.20;;;;;;4959595;28;20039;-62
2022/09/05 02:42:10;;;;;;;2.20;1.30;;;16.10;66.30;;;;;;4950553;29;20051;-62
2022/09/05 02:44:51;;;;;;;4.57;1.30;;;16.10;65.40;;;;;;4954849;29;20506;-63
2022/09/05 02:47:48;;;;;;;2.47;1.23;;;16.10;65.60;;;;;;4946527;29;20027;-63
2022/09/05 02:50:27;;;;;;;1.50;1.20;;;16.10;66.30;;;;;;4877762;28;20056;-62
2022/09/05 02:52:53;;;;;;;2.42;1.17;;;16.00;66.00;;;;;;4967548;29;20481;-62
2022/09/05 02:55:28;;;;;;;2.47;1.25;;;16.00;65.30;;;;;;4935469;29;20111;-62
2022/09/05 02:58:02;;;;;;;3.35;1.50;;;16.00;66.10;;;;;;4948918;29;20024;-62
2022/09/05 03:00:40;;;;;;;2.17;1.15;;;16.00;66.40;;;;;;4951699;29;20032;-62
2022/09/05 03:03:28;;;;;;;1.52;1.27;;;15.90;66.20;;;;;;4981906;28;20047;-61
2022/09/05 03:06:06;;;;;;;1.30;1.20;;;15.90;66.00;;;;;;4983070;28;20119;-63
2022/09/05 03:09:02;;;;;;;6.93;1.30;;;15.90;65.70;;;;;;4982998;28;20053;-63
2022/09/05 03:11:50;;;;;;;2.03;1.30;;;15.90;65.80;;;;;;4987378;28;20042;-61
2022/09/05 03:14:51;;;;;;;1.10;1.00;;;15.90;65.30;;;;;;4979633;28;20053;-62
2022/09/05 03:17:54;;;;;;;1.58;1.20;;;15.90;65.00;;;;;;4965286;28;20530;-62
2022/09/05 03:20:43;;;;;;;2.08;1.30;;;15.90;66.20;;;;;;5025626;28;20053;-62
2022/09/05 03:23:23;;;;;;;2.70;1.10;;;15.80;65.90;;;;;;5025061;28;20030;-63
2022/09/05 03:26:13;;;;;;;1.73;1.27;;;15.80;65.40;;;;;;5024162;28;20034;-62
2022/09/05 03:28:51;;;;;;;2.05;1.10;;;15.80;65.80;;;;;;5025001;28;20412;-62
2022/09/05 03:31:32;;;;;;;3.53;1.30;;;15.80;65.70;;;;;;5033368;28;20053;-62
2022/09/05 03:34:35;;;;;;;1.83;1.25;;;15.70;65.60;;;;;;5024692;28;20859;-61
2022/09/05 03:37:29;;;;;;;2.38;1.27;;;15.70;66.40;;;;;;5029439;28;20038;-61
2022/09/05 03:40:06;;;;;;;3.42;1.20;;;15.70;66.00;;;;;;5044698;28;20042;-63
2022/09/05 03:42:42;;;;;;;2.42;1.23;;;15.70;65.60;;;;;;5023441;28;20033;-61
2022/09/05 03:45:45;;;;;;;1.52;1.40;;;15.60;65.70;;;;;;5025699;28;20034;-61
2022/09/05 03:48:28;;;;;;;2.78;1.25;;;15.60;65.70;;;;;;5041022;28;20037;-62
2022/09/05 03:51:30;;;;;;;2.45;1.40;;;15.60;65.70;;;;;;5041435;28;20107;-62
2022/09/05 03:54:08;;;;;;;2.63;1.30;;;15.60;66.00;;;;;;5067936;28;20061;-60
2022/09/05 03:56:45;;;;;;;1.92;1.30;;;15.50;66.00;;;;;;5067584;28;20036;-62
2022/09/05 03:59:35;;;;;;;2.60;1.20;;;15.50;65.50;;;;;;5087684;28;20032;-62
2022/09/05 04:02:08;;;;;;;2.25;1.40;;;15.50;66.00;;;;;;5090201;28;20084;-61
2022/09/05 04:04:40;;;;;;;4.72;1.40;;;15.50;65.60;;;;;;5086225;28;20043;-61
2022/09/05 04:07:23;;;;;;;3.00;1.30;;;15.50;65.80;;;;;;5090013;28;20698;-62
2022/09/05 04:10:21;;;;;;;2.17;1.40;;;15.40;65.60;;;;;;5087006;28;20036;-60
2022/09/05 04:12:49;;;;;;;2.17;1.42;;;15.40;66.70;;;;;;5084003;28;20040;-63
2022/09/05 04:15:42;;;;;;;2.38;1.25;;;15.40;65.60;;;;;;5087165;28;20028;-61
2022/09/05 04:18:41;;;;;;;2.80;1.20;;;15.40;66.30;;;;;;5066747;28;20047;-61
2022/09/05 04:21:25;;;;;;;1.27;1.13;;;15.40;66.70;;;;;;5079284;28;20052;-61
2022/09/05 04:23:58;;;;;;;3.75;1.67;;;15.40;66.70;;;;;;5078137;28;20041;-61
2022/09/05 04:27:10;;;;;;;3.38;1.20;;;15.40;66.10;;;;;;5073328;28;20028;-63
2022/09/05 04:29:47;;;;;;;1.58;1.30;;;15.40;66.80;;;;;;5070714;28;20047;-62
2022/09/05 04:32:21;;;;;;;1.90;1.60;;;15.40;66.20;;;;;;5065311;28;20041;-61
2022/09/05 04:35:09;;;;;;;3.15;1.23;;;15.40;66.20;;;;;;5066294;28;20056;-62
2022/09/05 04:37:37;;;;;;;2.20;1.27;;;15.30;66.80;;;;;;5070448;28;20433;-61
2022/09/05 04:40:28;;;;;;;2.15;1.48;;;15.30;66.10;;;;;;5091732;28;20041;-62
2022/09/05 04:42:56;;;;;;;1.70;1.40;;;15.30;66.90;;;;;;5076414;28;20020;-61
2022/09/05 04:45:22;;;;;;;4.60;1.25;;;15.30;66.00;;;;;;5095282;28;20062;-61
2022/09/05 04:47:51;;;;;;;1.27;1.17;;;15.30;66.00;;;;;;5084947;28;20116;-62
2022/09/05 04:50:21;;;;;;;3.78;1.38;;;15.30;66.50;;;;;;5089113;28;20054;-61
2022/09/05 04:52:59;;;;;;;3.22;1.20;;;15.20;66.50;;;;;;5077564;28;20041;-62
2022/09/05 04:55:27;;;;;;;4.30;1.45;;;15.20;66.70;;;;;;5080588;28;20029;-61
2022/09/05 04:57:55;;;;;;;2.20;1.20;;;15.20;66.20;;;;;;5085666;28;20040;-63
2022/09/05 05:00:41;;;;;;;2.88;1.23;;;15.30;66.40;;;;;;5089026;28;20028;-62
2022/09/05 05:03:21;;;;;;;1.77;1.40;;;15.20;67.00;;;;;;5085808;28;20029;-61
2022/09/05 05:05:46;;;;;;;2.28;1.20;;;15.20;67.00;;;;;;5081191;28;20033;-61
2022/09/05 05:08:41;;;;;;;2.63;1.30;;;15.20;66.30;;;;;;5105682;28;20040;-60
2022/09/05 05:11:28;;;;;;;1.67;1.50;;;15.20;66.80;;;;;;5075893;28;20020;-61
2022/09/05 05:14:00;;;;;;;1.60;1.10;;;15.20;66.60;;;;;;5074675;28;20025;-62
2022/09/05 05:16:32;;;;;;;1.50;1.40;;;15.30;66.90;;;;;;5088469;28;20038;-61
2022/09/05 05:19:24;;;;;;;1.30;1.20;;;15.30;67.20;;;;;;5079154;28;20068;-61
2022/09/05 05:21:56;;;;;;;1.55;1.42;;;15.40;67.80;;;;;;5082878;28;20044;-61
2022/09/05 05:24:34;;;;;;;5.22;1.42;;;15.40;67.50;;;;;;5089417;28;20043;-61
2022/09/05 05:27:18;;;;;;;4.78;1.30;;;15.50;68.10;;;;;;5083499;28;20410;-61
2022/09/05 05:29:56;;;;;;;3.33;1.30;;;15.60;68.20;;;;;;5081795;28;20013;-61
2022/09/05 05:32:31;;;;;;;2.00;1.38;;;15.60;68.10;;;;;;5079898;28;20028;-61
2022/09/05 05:35:06;;;;;;;2.30;1.42;;;15.70;67.60;;;;;;5097640;28;20029;-61
2022/09/05 05:37:48;;;;;;;1.58;1.20;;;15.80;67.70;;;;;;5077168;28;20024;-63
2022/09/05 05:40:14;;;;;;;1.50;1.25;;;15.90;68.00;;;;;;5074342;28;20028;-61
2022/09/05 05:42:41;;;;;;;4.63;1.30;;;16.00;67.90;;;;;;5087392;28;20086;-62
2022/09/05 05:45:16;;;;;;;6.65;1.48;;;16.10;67.40;;;;;;5076272;28;20116;-62
2022/09/05 05:47:45;;;;;;;4.35;1.52;;;16.20;68.10;;;;;;5083432;28;20044;-61
2022/09/05 05:50:17;;;;;;;2.35;1.50;;;16.30;67.50;;;;;;5095631;28;20033;-62
2022/09/05 05:53:22;;;;;;;2.92;1.30;;;16.40;67.30;;;;;;5078658;28;20039;-60
2022/09/05 05:55:57;;;;;;;10.20;1.38;;;16.50;67.80;;;;;;5072982;28;20025;-63
2022/09/05 05:58:47;;;;;;;7.13;1.40;;;16.60;66.80;;;;;;5065271;28;20088;-61
2022/09/05 06:01:44;;;;;;;6.80;1.60;;;16.70;67.20;;;;;;5070770;28;20021;-61
2022/09/05 06:04:47;;;;;;;7.00;1.33;;;16.80;67.20;;;;;;5084867;28;20075;-61
2022/09/05 06:07:44;;;;;;;1.70;1.38;;;16.80;67.30;;;;;;5084444;28;20032;-62
2022/09/05 06:10:16;;;;;;;6.35;1.58;;;16.90;67.10;;;;;;5075751;28;20055;-60
2022/09/05 06:13:01;;;;;;;4.82;1.60;;;17.00;66.80;;;;;;5073220;28;20037;-62
2022/09/05 06:16:11;;;;;;;4.47;1.38;;;17.10;66.90;;;;;;5093626;28;20032;-62
2022/09/05 06:18:40;;;;;;;4.43;1.70;;;17.20;67.00;;;;;;5074277;28;20047;-60
2022/09/05 06:21:17;;;;;;;3.20;1.80;;;17.30;66.20;;;;;;5094249;28;20028;-62
2022/09/05 06:24:08;;;;;;;5.57;1.50;;;17.30;66.30;;;;;;5098631;28;20024;-61
2022/09/05 06:27:04;;;;;;;9.40;2.38;;;17.40;66.60;;;;;;5094814;28;20064;-62
2022/09/05 06:30:00;;;;;;;3.75;1.55;;;17.60;66.50;;;;;;5078720;28;20063;-61
2022/09/05 06:32:46;;;;;;;5.25;1.52;;;17.70;66.30;;;;;;5070964;28;20037;-61
2022/09/05 06:35:37;;;;;;;3.90;1.50;;;17.70;66.00;;;;;;5082513;28;20059;-63
2022/09/05 06:38:26;;;;;;;8.65;1.95;;;17.90;65.80;;;;;;5076519;28;20032;-61
2022/09/05 06:41:12;;;;;;;17.70;3.05;;;18.00;65.80;;;;;;5064519;28;20029;-62
2022/09/05 06:43:37;;;;;;;16.88;3.22;;;18.10;65.70;;;;;;5067391;28;20036;-62
2022/09/05 06:46:06;;;;;;;34.60;4.13;;;18.20;65.10;;;;;;5071603;28;20024;-62
2022/09/05 06:48:58;;;;;;;18.83;2.60;;;18.20;65.00;;;;;;5072534;28;20105;-61
2022/09/05 06:51:29;;;;;;;23.05;2.47;;;18.30;65.00;;;;;;5077961;28;20025;-62
2022/09/05 06:54:40;;;;;;;18.60;2.55;;;18.40;65.00;;;;;;5076041;28;20053;-61
2022/09/05 06:57:39;;;;;;;19.77;2.83;;;18.50;65.10;;;;;;5080708;28;20024;-62
2022/09/05 07:00:19;;;;;;;20.02;2.10;;;18.70;65.10;;;;;;5092401;28;20024;-61
2022/09/05 07:03:08;;;;;;;13.82;1.95;;;18.90;64.80;;;;;;5080646;28;20035;-62
2022/09/05 07:05:59;;;;;;;10.30;2.50;;;19.00;64.30;;;;;;5084522;28;20040;-61
2022/09/05 07:09:03;;;;;;;12.07;2.13;;;19.20;64.20;;;;;;5089188;28;20460;-61
2022/09/05 07:11:39;;;;;;;13.80;2.20;;;19.40;64.00;;;;;;5090274;28;20059;-61
2022/09/05 07:14:18;;;;;;;13.85;2.58;;;19.60;63.90;;;;;;5081991;28;20736;-62
2022/09/05 07:17:09;;;;;;;9.00;1.98;;;19.70;63.80;;;;;;5078046;28;20054;-62
2022/09/05 07:19:54;;;;;;;8.00;2.05;;;19.80;63.50;;;;;;5086746;28;20101;-62
2022/09/05 07:22:27;;;;;;;9.18;2.08;;;20.00;63.30;;;;;;5090990;28;20064;-62
2022/09/05 07:24:55;;;;;;;9.07;2.00;;;20.10;63.20;;;;;;5088222;28;20055;-61
2022/09/05 07:27:38;;;;;;;16.50;2.42;;;20.20;62.90;;;;;;5096652;28;20070;-61
2022/09/05 07:30:06;;;;;;;6.88;2.53;;;20.30;62.80;;;;;;5078690;28;20060;-62
2022/09/05 07:32:41;;;;;;;12.75;2.67;;;20.40;62.70;;;;;;5079054;28;20071;-62
2022/09/05 07:35:16;;;;;;;11.07;2.53;;;20.50;62.60;;;;;;5067755;28;20033;-62
2022/09/05 07:37:44;;;;;;;8.48;2.65;;;20.60;62.40;;;;;;5079673;28;20526;-62
2022/09/05 07:40:19;;;;;;;5.00;2.42;;;20.70;62.30;;;;;;5086991;28;20028;-63
2022/09/05 07:43:09;;;;;;;7.22;2.65;;;20.80;62.30;;;;;;5080423;28;20051;-62
2022/09/05 07:45:41;;;;;;;11.38;2.63;;;20.90;62.10;;;;;;5072647;28;20053;-63
2022/09/05 07:48:12;;;;;;;5.50;2.80;;;21.00;61.90;;;;;;5091550;28;20016;-63
2022/09/05 07:50:51;;;;;;;7.55;2.67;;;21.20;62.00;;;;;;5095210;28;20036;-61
2022/09/05 07:53:18;;;;;;;4.07;2.75;;;21.30;62.10;;;;;;5082488;28;20037;-62
2022/09/05 07:55:48;;;;;;;5.75;2.63;;;21.40;62.00;;;;;;5106613;28;20032;-62
2022/09/05 07:58:18;;;;;;;6.47;3.20;;;21.60;62.00;;;;;;5085990;28;20092;-62
2022/09/05 08:00:51;;;;;;;4.65;3.20;;;21.70;61.60;;;;;;5104302;28;20036;-62
2022/09/05 08:03:24;;;;;;;7.78;3.65;;;21.80;61.50;;;;;;5082460;28;20025;-63
2022/09/05 08:05:53;;;;;;;9.27;4.15;;;22.00;61.20;;;;;;5068800;28;20036;-63
2022/09/05 08:08:30;;;;;;;8.43;3.67;;;22.10;61.10;;;;;;5076122;28;20051;-62
2022/09/05 08:11:10;;;;;;;6.93;3.83;;;22.10;61.00;;;;;;5081355;28;20029;-61
2022/09/05 08:13:38;;;;;;;7.93;4.53;;;22.30;60.50;;;;;;5092160;28;20044;-62
2022/09/05 08:16:06;;;;;;;8.25;4.03;;;22.30;60.20;;;;;;5105503;28;20020;-62
2022/09/05 08:18:48;;;;;;;8.32;3.95;;;22.40;60.10;;;;;;5080980;28;20025;-61
2022/09/05 08:21:43;;;;;;;6.80;4.10;;;22.50;60.10;;;;;;5075846;28;20025;-62
2022/09/05 08:24:25;;;;;;;6.70;4.03;;;22.60;60.60;;;;;;5063641;28;20037;-63
2022/09/05 08:27:23;;;;;;;7.55;4.60;;;22.70;60.10;;;;;;5069047;28;20719;-63
2022/09/05 08:30:00;;;;;;;4.40;3.95;;;22.80;60.30;;;;;;5067733;28;20206;-62
2022/09/05 08:32:53;;;;;;;8.05;4.88;;;23.00;59.70;;;;;;5077080;28;20037;-62
2022/09/05 08:36:01;;;;;;;4.82;3.88;;;23.10;59.50;;;;;;5079604;28;20096;-61
2022/09/05 08:38:31;;;;;;;5.93;3.97;;;23.20;59.20;;;;;;5066248;28;20096;-61
2022/09/05 08:41:12;;;;;;;5.15;3.60;;;23.30;59.30;;;;;;5073247;28;20029;-62
2022/09/05 08:43:49;;;;;;;4.70;3.30;;;23.50;59.30;;;;;;5084128;28;20033;-62
2022/09/05 08:46:41;;;;;;;3.95;3.28;;;23.70;59.30;;;;;;5081101;28;20062;-63
2022/09/05 08:49:42;;;;;;;3.85;3.15;;;23.80;59.10;;;;;;5085584;28;20028;-63
2022/09/05 08:52:40;;;;;;;12.02;3.40;;;24.00;58.70;;;;;;5069914;28;20067;-63
2022/09/05 08:55:41;;;;;;;6.47;3.15;;;24.20;58.20;;;;;;5062000;28;20029;-62
2022/09/05 08:58:33;;;;;;;3.83;2.72;;;24.50;58.60;;;;;;5002106;28;20042;-63
2022/09/05 09:01:44;;;;;;;4.38;2.60;;;24.60;58.30;;;;;;5000616;28;20457;-63
2022/09/05 09:04:18;;;;;;;3.65;2.38;;;24.80;57.30;;;;;;5000054;28;20048;-63
2022/09/05 09:06:59;;;;;;;3.80;2.03;;;25.00;57.50;;;;;;5005226;28;20067;-63
2022/09/05 09:09:59;;;;;;;4.75;2.10;;;25.10;57.30;;;;;;4995125;28;20806;-63
2022/09/05 09:12:48;;;;;;;2.80;1.90;;;25.30;56.50;;;;;;5001130;28;20064;-63
2022/09/05 09:15:26;;;;;;;2.92;2.17;;;25.50;55.40;;;;;;4997740;28;20044;-62
2022/09/05 09:17:52;;;;;;;3.78;2.40;;;25.60;55.70;;;;;;5010708;28;20038;-62
2022/09/05 09:20:46;;;;;;;2.75;1.95;;;25.70;55.80;;;;;;5002389;28;20046;-63
2022/09/05 09:23:33;;;;;;;3.03;1.80;;;25.90;55.00;;;;;;5007731;28;20466;-63
2022/09/05 09:26:17;;;;;;;3.40;2.30;;;26.10;55.30;;;;;;5003179;28;20138;-63
2022/09/05 09:29:01;;;;;;;3.43;1.90;;;26.20;54.40;;;;;;4992808;28;20043;-63
2022/09/05 09:31:41;;;;;;;3.83;1.90;;;26.30;54.30;;;;;;5000657;28;20129;-63
2022/09/05 09:34:37;;;;;;;3.88;2.30;;;26.40;53.90;;;;;;5071575;28;20032;-64
2022/09/05 09:37:29;;;;;;;2.40;1.95;;;26.50;53.20;;;;;;5086203;28;20040;-63
2022/09/05 09:40:00;;;;;;;3.20;1.80;;;26.60;52.90;;;;;;5083251;28;20111;-63
2022/09/05 09:42:54;;;;;;;6.60;1.75;;;26.60;53.10;;;;;;5081894;28;20024;-64
2022/09/05 09:45:40;;;;;;;6.03;1.88;;;26.60;53.00;;;;;;5077403;28;20096;-64
2022/09/05 09:48:15;;;;;;;3.45;1.73;;;26.70;53.20;;;;;;5066455;28;20111;-64
2022/09/05 09:51:25;;;;;;;4.50;1.63;;;26.90;52.60;;;;;;5092396;28;20039;-64
2022/09/05 09:54:29;;;;;;;2.72;1.92;;;27.00;53.10;;;;;;5085771;28;20056;-63
2022/09/05 09:57:16;;;;;;;7.25;1.60;;;27.10;52.60;;;;;;5066859;28;20028;-64
2022/09/05 10:00:01;;;;;;;1.80;1.33;;;27.30;52.40;;;;;;5065049;28;20029;-63
2022/09/05 10:02:56;;;;;;;1.73;1.20;;;27.40;51.30;;;;;;5096615;28;20032;-63
2022/09/05 10:05:41;;;;;;;2.05;1.27;;;27.50;50.40;;;;;;5077803;28;20064;-63
2022/09/05 10:08:34;;;;;;;4.45;1.52;;;27.70;50.30;;;;;;5073449;28;20063;-63
2022/09/05 10:11:35;;;;;;;2.00;0.90;;;27.80;51.40;;;;;;5081201;28;20088;-63
2022/09/05 10:14:19;;;;;;;1.75;1.10;;;27.90;49.70;;;;;;5087612;28;20075;-64
2022/09/05 10:16:45;;;;;;;;;;;28.00;49.20;;;;;;5098257;28;20060;-64
2022/09/05 10:19:26;;;;;;;2.80;0.98;;;28.10;51.30;;;;;;5094362;28;22685;-64
2022/09/05 10:22:20;;;;;;;2.83;1.17;;;28.20;49.10;;;;;;5075233;28;20028;-63
2022/09/05 10:25:24;;;;;;;0.82;0.70;;;28.30;49.90;;;;;;5069752;28;20052;-63
2022/09/05 10:27:54;;;;;;;1.33;0.85;;;28.40;48.40;;;;;;5090379;28;20024;-63
2022/09/05 10:30:24;;;;;;;2.83;0.88;;;28.60;48.80;;;;;;5084188;28;20060;-64
2022/09/05 10:33:32;;;;;;;2.33;1.08;;;28.70;48.40;;;;;;5082736;28;20043;-64
2022/09/05 10:36:25;;;;;;;2.55;1.13;;;28.80;47.70;;;;;;5077210;28;20041;-64
2022/09/05 10:39:24;;;;;;;4.53;1.08;;;28.90;47.90;;;;;;5085301;28;20033;-63
2022/09/05 10:42:09;;;;;;;2.60;0.82;;;29.10;47.30;;;;;;5066929;28;20811;-64
2022/09/05 10:44:41;;;;;;;1.15;1.00;;;29.10;47.10;;;;;;5073702;28;20025;-63
2022/09/05 10:47:56;;;;;;;1.27;0.88;;;29.20;45.60;;;;;;5092289;28;20028;-63
2022/09/05 10:51:03;;;;;;;0.82;0.73;;;29.20;46.10;;;;;;5099333;28;20048;-62
2022/09/05 10:53:38;;;;;;;1.13;0.80;;;29.30;46.30;;;;;;5039869;28;20072;-63
2022/09/05 10:56:09;;;;;;;2.08;1.10;;;29.30;46.50;;;;;;5044185;28;20393;-63
2022/09/05 10:59:00;;;;;;;2.95;0.80;;;29.40;45.40;;;;;;5042164;28;20033;-63
2022/09/05 11:01:58;;;;;;;3.92;1.20;;;29.40;45.90;;;;;;5025734;28;20484;-63
2022/09/05 11:04:47;;;;;;;1.85;0.90;;;29.50;44.80;;;;;;5036477;28;20025;-62
2022/09/05 11:07:17;;;;;;;4.55;1.08;;;29.60;45.50;;;;;;5039230;28;20030;-63
2022/09/05 11:10:14;;;;;;;1.73;1.00;;;29.60;45.80;;;;;;5047583;28;20042;-63
2022/09/05 11:13:04;;;;;;;1.83;0.80;;;29.60;45.00;;;;;;5032975;28;20113;-64
2022/09/05 11:15:54;;;;;;;2.45;0.90;;;29.70;44.30;;;;;;5028079;28;20030;-64
2022/09/05 11:18:54;;;;;;;1.08;0.90;;;29.70;43.40;;;;;;5037735;28;20037;-64
2022/09/05 11:21:26;;;;;;;5.47;0.93;;;29.80;43.90;;;;;;5050458;28;20037;-63
2022/09/05 11:23:57;;;;;;;1.67;0.90;;;29.80;44.40;;;;;;5039560;28;20018;-64
2022/09/05 11:26:36;;;;;;;1.85;0.85;;;29.80;44.10;;;;;;5043464;28;20071;-64
2022/09/05 11:29:09;;;;;;;1.50;1.10;;;29.90;44.10;;;;;;5053409;28;20048;-63
2022/09/05 11:31:45;;;;;;;1.58;1.00;;;30.00;43.70;;;;;;5067538;28;20067;-64
2022/09/05 11:34:26;;;;;;;1.50;0.80;;;30.00;43.70;;;;;;5087419;28;20044;-63
2022/09/05 11:36:57;;;;;;;8.57;0.88;;;30.00;44.00;;;;;;5078093;28;20021;-63
2022/09/05 11:39:50;;;;;;;1.83;1.02;;;30.10;44.10;;;;;;5084639;28;20029;-63
2022/09/05 11:42:44;;;;;;;1.10;0.80;;;30.20;43.80;;;;;;5105840;28;20030;-64
2022/09/05 11:45:21;;;;;;;1.77;0.88;;;30.30;43.60;;;;;;5078546;28;20132;-63
2022/09/05 11:48:15;;;;;;;1.48;0.85;;;30.40;43.80;;;;;;5081725;28;20025;-63
2022/09/05 11:50:50;;;;;;;2.13;0.97;;;30.50;42.50;;;;;;5080570;28;20458;-63
2022/09/05 11:53:47;;;;;;;4.68;0.90;;;30.60;43.70;;;;;;5075161;28;20036;-63
2022/09/05 11:56:32;;;;;;;5.03;1.33;;;30.60;42.80;;;;;;5069877;28;20047;-63
2022/09/05 11:59:00;;;;;;;1.10;0.85;;;30.70;43.30;;;;;;5081221;28;20024;-63
2022/09/05 12:01:32;;;;;;;4.78;0.95;;;30.80;42.20;;;;;;5095330;28;20032;-63
2022/09/05 12:04:25;;;;;;;2.22;1.02;;;30.80;42.90;;;;;;5079904;28;20084;-64
2022/09/05 12:07:29;;;;;;;3.00;1.10;;;30.80;43.00;;;;;;5087048;28;20028;-63
2022/09/05 12:10:25;;;;;;;1.95;0.90;;;30.80;43.00;;;;;;5082759;28;20032;-63
2022/09/05 12:13:30;;;;;;;2.00;1.02;;;31.00;42.20;;;;;;5069868;28;20049;-63
2022/09/05 12:15:58;;;;;;;1.83;0.77;;;31.00;41.60;;;;;;5070247;28;20119;-64
2022/09/05 12:18:52;;;;;;;1.95;1.10;;;31.10;42.70;;;;;;5093000;28;20055;-64
2022/09/05 12:21:18;;;;;;;3.53;0.98;;;31.10;41.60;;;;;;5068030;28;20090;-63
2022/09/05 12:24:04;;;;;;;2.75;1.00;;;31.20;42.20;;;;;;5082549;28;20729;-63
2022/09/05 12:26:32;;;;;;;1.52;0.93;;;31.30;41.90;;;;;;5094787;28;20032;-64
2022/09/05 12:29:06;;;;;;;0.93;0.70;;;31.40;41.00;;;;;;5085536;28;20048;-64
2022/09/05 12:31:39;;;;;;;2.67;1.17;;;31.50;41.30;;;;;;5079710;28;20122;-64
2022/09/05 12:34:12;;;;;;;1.17;1.00;;;31.50;41.90;;;;;;5089345;28;20025;-64
2022/09/05 12:36:43;;;;;;;2.53;1.00;;;31.60;41.60;;;;;;5088583;28;20294;-63
2022/09/05 12:39:23;;;;;;;1.40;0.95;;;31.70;41.50;;;;;;5072604;28;20056;-64
2022/09/05 12:41:59;;;;;;;3.00;1.20;;;31.80;40.60;;;;;;5089150;28;20028;-64
2022/09/05 12:44:30;;;;;;;3.00;0.90;;;31.90;39.80;;;;;;5087123;28;20066;-64
2022/09/05 12:47:06;;;;;;;1.27;0.90;;;31.80;40.20;;;;;;5087606;28;20032;-65
2022/09/05 12:50:01;;;;;;;4.90;1.13;;;31.90;40.20;;;;;;5069729;28;20025;-64
2022/09/05 12:52:32;;;;;;;1.77;0.85;;;32.00;39.90;;;;;;5074559;28;20047;-64
2022/09/05 12:55:16;;;;;;;4.25;0.90;;;32.10;37.90;;;;;;5082920;28;20097;-64
2022/09/05 12:57:42;;;;;;;;;;;32.10;37.30;;;;;;5076073;28;20013;-64
2022/09/05 13:00:12;;;;;;;1.27;0.90;;;32.10;40.00;;;;;;5085070;28;19908;-63
2022/09/05 13:02:43;;;;;;;1.85;0.77;;;32.10;38.90;;;;;;5088368;28;20024;-64
2022/09/05 13:05:13;;;;;;;2.03;1.00;;;32.10;39.10;;;;;;5086279;28;20033;-65
2022/09/05 13:07:51;;;;;;;1.48;0.90;;;32.10;38.50;;;;;;5101805;28;20028;-64
2022/09/05 13:10:22;;;;;;;2.80;0.80;;;32.10;37.90;;;;;;5106128;28;20024;-64
2022/09/05 13:13:05;;;;;;;1.48;0.82;;;32.20;37.90;;;;;;5087424;28;20061;-64
2022/09/05 13:15:37;;;;;;;1.20;0.80;;;32.20;38.50;;;;;;5105066;28;20071;-62
2022/09/05 13:18:12;;;;;;;1.70;0.88;;;32.30;38.30;;;;;;5077432;28;20028;-64
2022/09/05 13:20:47;;;;;;;2.35;1.00;;;32.40;37.70;;;;;;5105875;28;20039;-63
2022/09/05 13:23:30;;;;;;;2.15;0.80;;;32.40;36.80;;;;;;5070866;28;20032;-63
2022/09/05 13:26:07;;;;;;;1.45;0.70;;;32.50;36.70;;;;;;5097218;28;20082;-64
2022/09/05 13:29:02;;;;;;;1.17;0.80;;;32.60;36.70;;;;;;5086214;28;20020;-64
2022/09/05 13:31:40;;;;;;;2.28;0.90;;;32.80;35.70;;;;;;5069958;28;20056;-64
2022/09/05 13:34:35;;;;;;;2.83;0.85;;;32.90;35.60;;;;;;5087277;28;20033;-65
2022/09/05 13:37:13;;;;;;;1.52;0.70;;;33.10;35.90;;;;;;5074691;28;20021;-64
2022/09/05 13:39:51;;;;;;;5.05;0.80;;;33.20;35.50;;;;;;5076829;28;20102;-64
2022/09/05 13:42:21;;;;;;;1.52;0.80;;;33.30;35.80;;;;;;5084328;28;20032;-64
2022/09/05 13:44:52;;;;;;;1.20;0.70;;;33.30;34.70;;;;;;5083306;28;20031;-63
2022/09/05 13:47:25;;;;;;;1.13;0.77;;;33.30;34.50;;;;;;5104165;28;20033;-64
2022/09/05 13:50:21;;;;;;;1.13;0.98;;;33.30;33.70;;;;;;5079553;28;20415;-64
2022/09/05 13:53:09;;;;;;;3.88;0.70;;;33.20;33.30;;;;;;5069109;28;21304;-64
2022/09/05 13:55:41;;;;;;;1.30;0.77;;;33.20;34.30;;;;;;5085197;28;20032;-64
2022/09/05 13:58:41;;;;;;;1.52;0.75;;;33.20;34.80;;;;;;5071636;28;20021;-63
2022/09/05 14:01:23;;;;;;;4.13;0.98;;;33.20;35.10;;;;;;5074158;28;20036;-63
2022/09/05 14:04:28;;;;;;;3.45;0.80;;;33.30;33.90;;;;;;5067869;28;20024;-64
2022/09/05 14:07:44;;;;;;;1.13;0.80;;;33.40;34.10;;;;;;5083505;28;20060;-64
2022/09/05 14:10:28;;;;;;;1.30;1.02;;;33.50;33.60;;;;;;5070053;28;20392;-64